Time;durP1;ratioP1;P1;durP2;ratioP2;P2;SDS_P1;SDS_P2;PMS_P1;PMS_P2;Temp;Humidity;BMP_temperature;BMP_pressure;BME280_temperature;BME280_humidity;BME280_pressure;Samples;Min_cycle;Max_cycle;Signal;HPM_P1;HPM_P2
2023/09/05 00:00:05;;;;;;;9.25;6.90;;;17.00;99.90;;;;;;4973511;28;20125;-89
2023/09/05 00:02:31;;;;;;;10.77;6.43;;;16.90;99.90;;;;;;4974211;28;20053;-89
2023/09/05 00:04:57;;;;;;;12.88;6.68;;;16.90;99.90;;;;;;4973939;28;20026;-88
2023/09/05 00:07:23;;;;;;;8.77;7.20;;;16.80;99.90;;;;;;4973350;28;20085;-90
2023/09/05 00:09:49;;;;;;;8.27;6.78;;;16.80;99.90;;;;;;4973412;28;20031;-90
2023/09/05 00:12:16;;;;;;;9.05;6.95;;;16.80;99.90;;;;;;4977224;28;20085;-89
2023/09/05 00:14:41;;;;;;;11.48;6.63;;;16.70;99.90;;;;;;4976660;28;20097;-89
2023/09/05 00:17:07;;;;;;;10.77;7.55;;;16.70;99.90;;;;;;4973610;28;20571;-90
2023/09/05 00:19:33;;;;;;;8.13;6.63;;;16.70;99.90;;;;;;4973317;28;20030;-90
2023/09/05 00:21:58;;;;;;;9.10;6.45;;;16.60;99.90;;;;;;4973664;28;20387;-89
2023/09/05 00:24:33;;;;;;;10.60;6.15;;;16.60;99.90;;;;;;4975302;28;20117;-89
2023/09/05 00:27:07;;;;;;;11.63;6.35;;;16.60;99.90;;;;;;4974126;28;20077;-90
2023/09/05 00:29:32;;;;;;;9.75;6.00;;;16.50;99.90;;;;;;4974399;28;20054;-92
2023/09/05 00:32:03;;;;;;;8.85;6.43;;;16.40;99.90;;;;;;4973750;28;20042;-90
2023/09/05 00:34:34;;;;;;;11.23;7.22;;;16.40;99.90;;;;;;4975703;28;20026;-90
2023/09/05 00:37:00;;;;;;;;;;;16.30;99.90;;;;;;4975973;28;20035;-90
2023/09/05 00:39:29;;;;;;;9.40;6.43;;;16.30;99.90;;;;;;4979223;28;19930;-89
2023/09/05 00:41:56;;;;;;;10.18;6.97;;;16.30;99.90;;;;;;4979556;28;20041;-89
2023/09/05 00:44:25;;;;;;;7.43;6.47;;;16.20;99.90;;;;;;4976115;28;20023;-89
2023/09/05 00:46:55;;;;;;;9.82;6.72;;;16.20;99.90;;;;;;4972804;28;20060;-90
2023/09/05 00:49:27;;;;;;;10.50;6.82;;;16.10;99.90;;;;;;4973582;28;20034;-90
2023/09/05 00:51:58;;;;;;;9.30;6.80;;;16.10;99.90;;;;;;4976738;28;20034;-90
2023/09/05 00:54:24;;;;;;;13.55;7.13;;;16.10;99.90;;;;;;4976541;28;20026;-89
2023/09/05 00:56:52;;;;;;;12.07;6.68;;;16.10;99.90;;;;;;4976098;28;20033;-89
2023/09/05 00:59:18;;;;;;;11.50;7.22;;;16.00;99.90;;;;;;4976024;28;20260;-89
2023/09/05 01:01:44;;;;;;;8.85;7.10;;;16.00;99.90;;;;;;4975748;28;20026;-90
2023/09/05 01:04:10;;;;;;;8.15;6.40;;;15.90;99.90;;;;;;4976323;28;20053;-89
2023/09/05 01:07:03;;;;;;;10.27;6.88;;;15.90;99.90;;;;;;4980144;28;20027;-89
2023/09/05 01:09:56;;;;;;;10.13;6.78;;;15.90;99.90;;;;;;4979773;28;20027;-89
2023/09/05 01:12:22;;;;;;;10.45;7.10;;;15.90;99.90;;;;;;4977231;28;20031;-91
2023/09/05 01:14:48;;;;;;;9.75;6.72;;;15.80;99.90;;;;;;4977649;28;20054;-89
2023/09/05 01:17:14;;;;;;;11.27;6.93;;;15.70;99.90;;;;;;4977595;28;20073;-89
2023/09/05 01:19:41;;;;;;;9.70;7.43;;;15.60;99.90;;;;;;4977344;28;20027;-89
2023/09/05 01:22:15;;;;;;;8.73;6.60;;;15.60;99.90;;;;;;4976596;28;20119;-91
2023/09/05 01:24:41;;;;;;;9.48;6.50;;;15.60;99.90;;;;;;4976028;28;20110;-90
2023/09/05 01:27:08;;;;;;;11.00;7.03;;;15.50;99.90;;;;;;4975591;28;20558;-89
2023/09/05 01:29:39;;;;;;;10.35;7.30;;;15.50;99.90;;;;;;4991544;28;20034;-90
2023/09/05 01:32:11;;;;;;;9.45;6.70;;;15.40;99.90;;;;;;4975324;28;20452;-90
2023/09/05 01:34:37;;;;;;;10.20;7.28;;;15.40;99.90;;;;;;4989931;28;20047;-89
2023/09/05 01:37:03;;;;;;;10.02;7.13;;;15.40;99.90;;;;;;4975312;28;20030;-89
2023/09/05 01:39:28;;;;;;;10.07;6.78;;;15.30;99.90;;;;;;4974872;28;20019;-89
2023/09/05 01:41:57;;;;;;;10.73;7.38;;;15.40;99.90;;;;;;4974819;28;20033;-89
2023/09/05 01:44:22;;;;;;;9.18;7.13;;;15.30;99.90;;;;;;4991258;28;20030;-89
2023/09/05 01:46:48;;;;;;;8.82;6.35;;;15.30;99.90;;;;;;4975871;28;20019;-90
2023/09/05 01:49:14;;;;;;;11.45;7.50;;;15.20;99.90;;;;;;4974726;28;20069;-90
2023/09/05 01:51:39;;;;;;;9.23;6.97;;;15.20;99.90;;;;;;4975902;28;20093;-89
2023/09/05 01:54:05;;;;;;;10.93;7.20;;;15.20;99.90;;;;;;4975650;28;20081;-89
2023/09/05 01:56:31;;;;;;;10.27;6.88;;;15.10;99.90;;;;;;4975463;28;20022;-89
2023/09/05 01:58:56;;;;;;;11.60;7.00;;;15.10;99.90;;;;;;4975881;28;20023;-90
2023/09/05 02:01:22;;;;;;;10.77;7.65;;;15.00;99.90;;;;;;4990369;28;20023;-89
2023/09/05 02:03:48;;;;;;;9.43;6.85;;;14.90;99.90;;;;;;4974643;28;20023;-89
2023/09/05 02:06:14;;;;;;;10.98;7.63;;;14.90;99.90;;;;;;4975581;28;20149;-89
2023/09/05 02:08:40;;;;;;;9.70;7.72;;;14.90;99.90;;;;;;4974383;28;20081;-89
2023/09/05 02:11:05;;;;;;;11.35;7.47;;;14.80;99.90;;;;;;4974404;28;20039;-90
2023/09/05 02:13:31;;;;;;;11.93;8.23;;;14.80;99.90;;;;;;4971798;28;20378;-89
2023/09/05 02:15:57;;;;;;;11.48;7.95;;;14.80;99.90;;;;;;4974399;28;20022;-90
2023/09/05 02:18:23;;;;;;;11.38;6.85;;;14.80;99.90;;;;;;4990591;28;20058;-89
2023/09/05 02:20:49;;;;;;;12.82;7.95;;;14.70;99.90;;;;;;4975398;28;20022;-89
2023/09/05 02:23:14;;;;;;;10.82;8.05;;;14.70;99.90;;;;;;4974307;28;20501;-90
2023/09/05 02:25:41;;;;;;;12.23;8.40;;;14.70;99.90;;;;;;4976478;28;20023;-90
2023/09/05 02:28:07;;;;;;;9.85;7.40;;;14.70;99.90;;;;;;4975301;28;20019;-90
2023/09/05 02:30:35;;;;;;;13.60;8.65;;;14.60;99.90;;;;;;4974666;28;20047;-91
2023/09/05 02:33:01;;;;;;;12.15;7.60;;;14.60;99.90;;;;;;4974159;28;20061;-88
2023/09/05 02:35:27;;;;;;;10.93;7.57;;;14.50;99.90;;;;;;4974091;28;20030;-91
2023/09/05 02:37:55;;;;;;;9.90;7.30;;;14.50;99.90;;;;;;4975289;28;20046;-90
2023/09/05 02:40:21;;;;;;;12.88;8.70;;;14.40;99.90;;;;;;4975189;28;20027;-89
2023/09/05 02:42:47;;;;;;;12.63;8.52;;;14.40;99.90;;;;;;4974060;28;20163;-91
2023/09/05 02:45:13;;;;;;;9.60;7.95;;;14.30;99.90;;;;;;4974185;28;20545;-91
2023/09/05 02:47:40;;;;;;;11.07;7.80;;;14.30;99.90;;;;;;4974367;28;20029;-90
2023/09/05 02:50:06;;;;;;;11.43;7.50;;;14.20;99.90;;;;;;4974946;28;20082;-91
2023/09/05 02:52:33;;;;;;;10.38;7.88;;;14.20;99.90;;;;;;4973649;28;20226;-91
2023/09/05 02:55:00;;;;;;;13.05;8.18;;;14.10;99.90;;;;;;4974002;28;20441;-90
2023/09/05 02:57:26;;;;;;;12.10;8.25;;;14.10;99.90;;;;;;4973582;28;20085;-91
2023/09/05 02:59:53;;;;;;;10.73;8.02;;;14.10;99.90;;;;;;4975058;28;20109;-90
2023/09/05 03:02:19;;;;;;;12.68;8.70;;;14.10;99.90;;;;;;4973773;28;20029;-91
2023/09/05 03:04:45;;;;;;;11.48;7.82;;;14.10;99.90;;;;;;4975492;28;20023;-91
2023/09/05 03:07:11;;;;;;;9.57;7.10;;;14.00;99.90;;;;;;4975178;28;20019;-91
2023/09/05 03:09:38;;;;;;;11.73;8.10;;;14.00;99.90;;;;;;4983105;28;20033;-90
2023/09/05 03:12:05;;;;;;;9.63;7.72;;;13.90;99.90;;;;;;4980616;28;20058;-91
2023/09/05 03:14:30;;;;;;;12.40;7.30;;;13.80;99.90;;;;;;4973544;28;20581;-91
2023/09/05 03:16:57;;;;;;;15.55;7.72;;;13.70;99.90;;;;;;4975437;28;20031;-91
2023/09/05 03:19:22;;;;;;;10.85;7.68;;;13.70;99.90;;;;;;4972817;28;20026;-90
2023/09/05 03:21:49;;;;;;;10.48;8.45;;;13.60;99.90;;;;;;4974245;28;20092;-90
2023/09/05 03:24:17;;;;;;;9.82;7.90;;;13.50;99.90;;;;;;4974791;28;20027;-90
2023/09/05 03:26:46;;;;;;;10.27;7.25;;;13.50;99.90;;;;;;4973599;28;20474;-91
2023/09/05 03:29:12;;;;;;;11.30;7.90;;;13.40;99.90;;;;;;4970602;28;20363;-90
2023/09/05 03:31:39;;;;;;;10.75;7.82;;;13.40;99.90;;;;;;4973005;28;20082;-92
2023/09/05 03:34:05;;;;;;;9.40;7.30;;;13.40;99.90;;;;;;4973217;28;20034;-90
2023/09/05 03:36:32;;;;;;;9.48;7.57;;;13.30;99.90;;;;;;4973458;28;20027;-90
2023/09/05 03:38:57;;;;;;;13.70;9.82;;;13.30;99.90;;;;;;4973432;28;20023;-90
2023/09/05 03:41:23;;;;;;;12.20;8.25;;;13.20;99.90;;;;;;4973538;28;20023;-90
2023/09/05 03:43:49;;;;;;;10.05;7.20;;;13.20;99.90;;;;;;4974898;28;20043;-90
2023/09/05 03:46:14;;;;;;;10.85;7.45;;;13.20;99.90;;;;;;4973138;28;20027;-90
2023/09/05 03:48:40;;;;;;;9.35;7.45;;;13.20;99.90;;;;;;4974648;28;20450;-90
2023/09/05 03:51:06;;;;;;;12.70;8.15;;;13.10;99.90;;;;;;4986188;28;20387;-90
2023/09/05 03:53:32;;;;;;;10.80;7.97;;;13.10;99.90;;;;;;4983170;28;20022;-89
2023/09/05 03:55:57;;;;;;;10.48;8.10;;;13.10;99.90;;;;;;4977051;28;20023;-90
2023/09/05 03:58:23;;;;;;;11.73;7.82;;;13.00;99.90;;;;;;4973237;28;20027;-89
2023/09/05 04:00:49;;;;;;;9.95;7.93;;;13.00;99.90;;;;;;4973099;28;20023;-89
2023/09/05 04:03:16;;;;;;;9.82;6.80;;;13.00;99.90;;;;;;4973257;28;20151;-90
2023/09/05 04:05:43;;;;;;;10.07;7.18;;;13.00;99.90;;;;;;4973431;28;20030;-89
2023/09/05 04:08:09;;;;;;;9.50;6.40;;;13.00;99.90;;;;;;4976941;28;20050;-89
2023/09/05 04:10:35;;;;;;;8.40;6.78;;;13.00;99.90;;;;;;4973861;28;20047;-90
2023/09/05 04:13:01;;;;;;;11.38;7.28;;;12.90;99.90;;;;;;4974572;28;20134;-89
2023/09/05 04:15:27;;;;;;;10.90;7.30;;;12.80;99.90;;;;;;4975194;28;20027;-88
2023/09/05 04:17:52;;;;;;;8.88;6.43;;;12.80;99.90;;;;;;4987725;28;20034;-89
2023/09/05 04:20:18;;;;;;;10.55;6.82;;;12.80;99.90;;;;;;4973412;28;20054;-89
2023/09/05 04:22:44;;;;;;;9.25;7.13;;;12.70;99.90;;;;;;4973803;28;20109;-89
2023/09/05 04:25:10;;;;;;;9.30;6.90;;;12.70;99.90;;;;;;4975148;28;20054;-90
2023/09/05 04:27:36;;;;;;;8.23;6.22;;;12.70;99.90;;;;;;4976539;28;20105;-89
2023/09/05 04:30:03;;;;;;;9.77;6.90;;;12.70;99.90;;;;;;4976235;28;20031;-90
2023/09/05 04:32:30;;;;;;;13.13;6.80;;;12.60;99.90;;;;;;4976053;28;20054;-90
2023/09/05 04:35:01;;;;;;;8.63;7.10;;;12.60;99.90;;;;;;4992242;28;20070;-91
2023/09/05 04:37:27;;;;;;;12.02;8.85;;;12.50;99.90;;;;;;4976547;28;20031;-89
2023/09/05 04:39:54;;;;;;;30.52;9.70;;;12.40;99.90;;;;;;4976129;28;20049;-90
2023/09/05 04:42:20;;;;;;;13.10;9.30;;;12.30;99.90;;;;;;4976167;28;20030;-90
2023/09/05 04:44:46;;;;;;;27.42;10.32;;;12.30;99.90;;;;;;4976095;28;20415;-91
2023/09/05 04:47:25;;;;;;;12.63;10.00;;;12.20;99.90;;;;;;4976116;28;20054;-90
2023/09/05 04:49:53;;;;;;;11.70;8.65;;;12.20;99.90;;;;;;4976068;28;20088;-91
2023/09/05 04:52:20;;;;;;;11.88;8.32;;;12.20;99.90;;;;;;4976816;28;20023;-91
2023/09/05 04:54:46;;;;;;;9.35;7.63;;;12.20;99.90;;;;;;4975806;28;20026;-90
2023/09/05 04:57:16;;;;;;;10.32;7.97;;;12.20;99.90;;;;;;4975721;28;20029;-90
2023/09/05 04:59:47;;;;;;;9.18;6.88;;;12.20;99.90;;;;;;4975609;28;20037;-92
2023/09/05 05:02:16;;;;;;;12.73;7.53;;;12.20;99.90;;;;;;4975848;28;20034;-89
2023/09/05 05:04:43;;;;;;;13.93;8.43;;;12.20;99.90;;;;;;4992100;28;20060;-89
2023/09/05 05:07:09;;;;;;;10.00;6.75;;;12.20;99.90;;;;;;4977403;28;20405;-90
2023/09/05 05:09:35;;;;;;;11.30;8.20;;;12.20;99.90;;;;;;4980627;28;20500;-89
2023/09/05 05:12:01;;;;;;;11.77;7.15;;;12.20;99.90;;;;;;4988071;28;20030;-89
2023/09/05 05:14:28;;;;;;;10.68;8.00;;;12.20;99.90;;;;;;4977779;28;20034;-89
2023/09/05 05:16:54;;;;;;;10.25;7.93;;;12.10;99.90;;;;;;4975267;28;20019;-90
2023/09/05 05:19:21;;;;;;;8.60;6.90;;;12.10;99.90;;;;;;4976385;28;20532;-89
2023/09/05 05:21:51;;;;;;;9.60;6.88;;;12.10;99.90;;;;;;4976614;28;20110;-89
2023/09/05 05:24:17;;;;;;;9.52;6.78;;;12.00;99.90;;;;;;4975773;28;20026;-89
2023/09/05 05:26:43;;;;;;;8.65;6.50;;;11.90;99.90;;;;;;4975605;28;20489;-90
2023/09/05 05:29:09;;;;;;;8.93;6.53;;;11.80;99.90;;;;;;4975274;28;20055;-90
2023/09/05 05:31:36;;;;;;;9.02;6.65;;;11.80;99.90;;;;;;4974834;28;20091;-89
2023/09/05 05:34:02;;;;;;;9.48;7.00;;;11.70;99.90;;;;;;4975244;28;20030;-89
2023/09/05 05:36:29;;;;;;;10.75;7.50;;;11.70;99.90;;;;;;4975815;28;20027;-89
2023/09/05 05:38:56;;;;;;;11.95;7.45;;;11.60;99.90;;;;;;4976305;28;20019;-89
2023/09/05 05:41:21;;;;;;;10.75;7.70;;;11.60;99.90;;;;;;4975076;28;20026;-89
2023/09/05 05:43:47;;;;;;;11.43;8.10;;;11.60;99.90;;;;;;4974998;28;20561;-91
2023/09/05 05:46:14;;;;;;;11.60;8.90;;;11.70;99.90;;;;;;4974862;28;20030;-90
2023/09/05 05:48:40;;;;;;;13.38;9.60;;;11.70;99.90;;;;;;4974893;28;20101;-90
2023/09/05 05:51:06;;;;;;;14.10;10.10;;;11.80;99.90;;;;;;4974920;28;20038;-90
2023/09/05 05:53:32;;;;;;;16.27;9.73;;;11.80;99.90;;;;;;4976973;28;20023;-91
2023/09/05 05:55:58;;;;;;;15.75;10.45;;;11.80;99.90;;;;;;4991301;28;20039;-89
2023/09/05 05:58:24;;;;;;;13.68;10.13;;;11.80;99.90;;;;;;4974884;28;20022;-90
2023/09/05 06:00:52;;;;;;;14.63;10.00;;;11.80;99.90;;;;;;4974737;28;20074;-91
2023/09/05 06:03:19;;;;;;;13.95;9.98;;;11.80;99.90;;;;;;4975408;28;20602;-90
2023/09/05 06:05:45;;;;;;;15.30;10.45;;;11.90;99.90;;;;;;4975753;28;20094;-90
2023/09/05 06:08:11;;;;;;;13.43;10.00;;;11.90;99.90;;;;;;4974581;28;20109;-91
2023/09/05 06:10:37;;;;;;;12.70;9.57;;;11.90;99.90;;;;;;4974442;28;20030;-89
2023/09/05 06:13:04;;;;;;;12.40;9.57;;;11.90;99.90;;;;;;4975583;28;20578;-88
2023/09/05 06:15:33;;;;;;;15.57;9.90;;;11.90;99.90;;;;;;4975248;28;20402;-89
2023/09/05 06:18:00;;;;;;;16.65;9.85;;;11.90;99.90;;;;;;4975073;28;20023;-90
2023/09/05 06:20:26;;;;;;;15.98;10.65;;;11.90;99.90;;;;;;4976145;28;20073;-91
2023/09/05 06:22:52;;;;;;;18.92;10.57;;;12.00;99.90;;;;;;4975004;28;20066;-89
2023/09/05 06:25:17;;;;;;;15.80;9.98;;;12.00;99.90;;;;;;4974803;28;20176;-90
2023/09/05 06:27:43;;;;;;;15.98;10.52;;;12.10;99.90;;;;;;4968280;28;20467;-90
2023/09/05 06:30:10;;;;;;;13.38;9.35;;;12.10;99.90;;;;;;4974610;28;20035;-90
2023/09/05 06:32:36;;;;;;;11.43;9.02;;;12.10;99.90;;;;;;4978194;28;20701;-90
2023/09/05 06:35:05;;;;;;;12.02;8.80;;;12.10;99.90;;;;;;4979771;28;20030;-89
2023/09/05 06:37:32;;;;;;;14.48;9.32;;;12.10;99.90;;;;;;4987805;28;20019;-89
2023/09/05 06:39:58;;;;;;;14.38;9.95;;;12.10;99.90;;;;;;4981662;28;20401;-88
2023/09/05 06:42:24;;;;;;;19.85;9.95;;;12.10;99.90;;;;;;4985130;28;20022;-89
2023/09/05 06:44:49;;;;;;;15.38;10.05;;;12.10;99.90;;;;;;4984428;28;20107;-88
2023/09/05 06:47:15;;;;;;;14.82;9.90;;;12.20;99.90;;;;;;4974796;28;20101;-90
2023/09/05 06:49:41;;;;;;;14.07;9.20;;;12.20;99.90;;;;;;4974707;28;20101;-89
2023/09/05 06:52:06;;;;;;;13.10;9.65;;;12.20;99.90;;;;;;4973689;28;20030;-90
2023/09/05 06:54:32;;;;;;;11.90;8.73;;;12.20;99.90;;;;;;4975155;28;20027;-91
2023/09/05 06:56:59;;;;;;;11.75;9.13;;;12.20;99.90;;;;;;4975065;28;20468;-91
2023/09/05 06:59:25;;;;;;;10.60;8.00;;;12.20;99.90;;;;;;4977579;28;20022;-91
2023/09/05 07:01:50;;;;;;;11.07;8.35;;;12.20;99.90;;;;;;4984479;28;20028;-91
2023/09/05 07:04:16;;;;;;;11.23;8.68;;;12.20;99.90;;;;;;4975665;28;20027;-90
2023/09/05 07:06:42;;;;;;;12.35;9.00;;;12.20;99.90;;;;;;4980057;28;20110;-90
2023/09/05 07:09:08;;;;;;;17.50;11.27;;;12.20;99.90;;;;;;4988991;28;20055;-89
2023/09/05 07:11:34;;;;;;;20.15;11.93;;;12.20;99.90;;;;;;4989452;28;20042;-91
2023/09/05 07:14:00;;;;;;;20.35;12.10;;;12.30;99.90;;;;;;4988440;28;20042;-90
2023/09/05 07:16:26;;;;;;;21.23;12.82;;;12.40;99.90;;;;;;5008673;28;20030;-92
2023/09/05 07:18:51;;;;;;;20.73;12.45;;;12.50;99.90;;;;;;4981366;28;20093;-89
2023/09/05 07:21:17;;;;;;;15.00;10.02;;;12.60;99.90;;;;;;4978613;28;20023;-88
2023/09/05 07:23:43;;;;;;;20.23;12.85;;;12.70;99.90;;;;;;4977374;28;20027;-90
2023/09/05 07:26:08;;;;;;;21.83;13.20;;;12.80;99.90;;;;;;4976321;28;20181;-90
2023/09/05 07:28:34;;;;;;;22.33;13.55;;;13.00;99.90;;;;;;4975832;28;20458;-89
2023/09/05 07:31:01;;;;;;;15.00;9.88;;;13.10;99.90;;;;;;4974040;28;20051;-89
2023/09/05 07:33:27;;;;;;;20.48;13.18;;;13.20;99.90;;;;;;4976094;28;20043;-90
2023/09/05 07:35:53;;;;;;;21.10;14.00;;;13.30;99.90;;;;;;4975453;28;20390;-88
2023/09/05 07:38:21;;;;;;;20.23;13.55;;;13.40;99.90;;;;;;4978079;28;20022;-91
2023/09/05 07:40:50;;;;;;;25.42;13.30;;;13.50;99.90;;;;;;4975113;28;20027;-88
2023/09/05 07:43:16;;;;;;;22.08;12.77;;;13.60;99.90;;;;;;4974753;28;20021;-89
2023/09/05 07:45:41;;;;;;;19.83;12.45;;;13.70;99.90;;;;;;4978566;28;20570;-88
2023/09/05 07:48:08;;;;;;;19.85;12.43;;;13.70;99.90;;;;;;4982389;28;20019;-88
2023/09/05 07:50:35;;;;;;;13.25;9.00;;;13.80;99.90;;;;;;4974806;28;20125;-90
2023/09/05 07:53:00;;;;;;;12.15;7.13;;;14.00;99.90;;;;;;4975603;28;20030;-89
2023/09/05 07:55:26;;;;;;;11.38;7.63;;;14.10;99.90;;;;;;4975037;28;20073;-90
2023/09/05 07:57:52;;;;;;;13.05;8.57;;;14.20;99.90;;;;;;4972281;28;20027;-89
2023/09/05 08:00:19;;;;;;;14.30;8.25;;;14.30;99.90;;;;;;4993338;28;20038;-91
2023/09/05 08:02:45;;;;;;;16.52;10.60;;;14.50;99.90;;;;;;4977397;28;20051;-88
2023/09/05 08:05:11;;;;;;;18.23;9.43;;;14.60;99.90;;;;;;4976802;28;20027;-89
2023/09/05 08:07:38;;;;;;;22.67;13.05;;;14.70;99.90;;;;;;4976708;28;20302;-90
2023/09/05 08:10:05;;;;;;;18.50;11.60;;;14.90;99.90;;;;;;4975921;28;20494;-90
2023/09/05 08:12:31;;;;;;;13.98;9.30;;;15.00;99.90;;;;;;4976377;28;20035;-89
2023/09/05 08:14:57;;;;;;;18.88;12.27;;;15.10;99.90;;;;;;4978821;28;20205;-88
2023/09/05 08:17:23;;;;;;;34.53;19.23;;;15.30;99.90;;;;;;4977415;28;20049;-89
2023/09/05 08:19:48;;;;;;;22.25;14.75;;;15.50;99.90;;;;;;4976485;28;20111;-91
2023/09/05 08:22:14;;;;;;;20.05;12.77;;;15.60;99.90;;;;;;4977648;28;20035;-90
2023/09/05 08:24:40;;;;;;;37.67;22.42;;;15.80;99.90;;;;;;4977829;28;20026;-89
2023/09/05 08:27:05;;;;;;;26.45;15.40;;;16.00;99.90;;;;;;4976752;28;20045;-92
2023/09/05 08:29:34;;;;;;;36.70;21.13;;;16.10;99.90;;;;;;4975948;28;20391;-89
2023/09/05 08:32:00;;;;;;;27.40;17.73;;;16.30;99.90;;;;;;4975949;28;20101;-90
2023/09/05 08:34:26;;;;;;;30.73;18.92;;;16.50;99.90;;;;;;4976527;28;20030;-90
2023/09/05 08:36:52;;;;;;;27.60;17.20;;;16.80;99.90;;;;;;4977038;28;20026;-89
2023/09/05 08:39:19;;;;;;;24.67;16.67;;;16.90;99.90;;;;;;4976971;28;20121;-91
2023/09/05 08:41:46;;;;;;;24.42;15.52;;;17.10;99.90;;;;;;4977435;28;20029;-89
2023/09/05 08:44:12;;;;;;;23.98;15.77;;;17.30;99.90;;;;;;4976882;28;20023;-90
2023/09/05 08:46:40;;;;;;;20.70;13.45;;;17.50;99.90;;;;;;4978360;28;20037;-90
2023/09/05 08:49:05;;;;;;;18.13;11.85;;;17.70;99.90;;;;;;4975743;28;20023;-90
2023/09/05 08:51:35;;;;;;;18.75;10.00;;;17.90;99.90;;;;;;4975998;28;20372;-90
2023/09/05 08:54:03;;;;;;;17.13;10.50;;;18.10;99.90;;;;;;4976019;28;20038;-90
2023/09/05 08:56:29;;;;;;;15.65;10.75;;;18.30;99.90;;;;;;4975113;28;20110;-90
2023/09/05 08:59:00;;;;;;;14.88;9.75;;;18.50;99.90;;;;;;4976225;28;20066;-91
2023/09/05 09:01:29;;;;;;;14.98;9.57;;;18.70;99.90;;;;;;4976951;28;20057;-90
2023/09/05 09:03:55;;;;;;;19.48;10.80;;;18.90;99.90;;;;;;4973912;28;20105;-92
2023/09/05 09:06:24;;;;;;;16.83;11.00;;;19.10;99.90;;;;;;4975725;28;20071;-90
2023/09/05 09:08:52;;;;;;;21.55;12.65;;;19.30;99.90;;;;;;4974949;28;20023;-90
2023/09/05 09:11:22;;;;;;;16.08;11.13;;;19.50;99.90;;;;;;4974148;28;20039;-90
2023/09/05 09:13:50;;;;;;;16.52;10.40;;;19.60;99.90;;;;;;4975345;28;20725;-88
2023/09/05 09:16:19;;;;;;;15.77;10.88;;;19.80;99.90;;;;;;4978570;28;20133;-92
2023/09/05 09:19:02;;;;;;;15.60;10.60;;;20.00;99.90;;;;;;4981130;28;20027;-90
2023/09/05 09:21:29;;;;;;;20.35;11.10;;;20.20;99.90;;;;;;4976285;28;20031;-90
2023/09/05 09:24:11;;;;;;;14.70;9.75;;;20.30;99.90;;;;;;4975098;28;20034;-89
2023/09/05 09:26:38;;;;;;;16.65;9.77;;;20.50;99.90;;;;;;4973305;28;20026;-90
2023/09/05 09:29:08;;;;;;;14.52;9.98;;;20.70;99.90;;;;;;4975195;28;20512;-90
2023/09/05 09:31:34;;;;;;;15.65;9.52;;;20.90;99.90;;;;;;4978399;28;20034;-89
2023/09/05 09:34:00;;;;;;;17.58;10.00;;;21.10;99.90;;;;;;4977910;28;20038;-92
2023/09/05 09:36:37;;;;;;;12.55;8.32;;;21.30;99.90;;;;;;4990031;28;20567;-91
2023/09/05 09:39:10;;;;;;;15.07;10.05;;;21.50;99.90;;;;;;4977285;28;20023;-90
2023/09/05 09:41:44;;;;;;;17.58;10.55;;;21.70;99.90;;;;;;4974931;28;20121;-90
2023/09/05 09:44:11;;;;;;;15.15;9.40;;;21.90;99.90;;;;;;4969336;28;20034;-90
2023/09/05 09:46:38;;;;;;;18.80;10.23;;;22.00;99.40;;;;;;4973622;28;20110;-89
2023/09/05 09:49:07;;;;;;;16.63;9.05;;;22.20;98.90;;;;;;4974457;28;20034;-89
2023/09/05 09:51:35;;;;;;;17.27;9.60;;;22.40;97.80;;;;;;4971214;28;20042;-90
2023/09/05 09:54:06;;;;;;;14.30;9.10;;;22.60;97.00;;;;;;4955321;29;20294;-89
2023/09/05 09:56:33;;;;;;;16.42;9.95;;;22.80;96.00;;;;;;4965086;28;20022;-89
2023/09/05 09:59:01;;;;;;;15.75;10.40;;;23.00;95.20;;;;;;4973723;28;20039;-90
2023/09/05 10:01:28;;;;;;;15.50;9.40;;;23.10;94.30;;;;;;4973569;28;20027;-89
2023/09/05 10:03:55;;;;;;;19.00;11.40;;;23.30;93.70;;;;;;4981648;28;20029;-89
2023/09/05 10:06:23;;;;;;;16.00;10.52;;;23.40;92.60;;;;;;4984419;28;20027;-89
2023/09/05 10:08:50;;;;;;;16.17;9.25;;;23.60;91.60;;;;;;4976271;28;20062;-89
2023/09/05 10:11:17;;;;;;;15.73;9.98;;;23.70;91.10;;;;;;4974264;28;20046;-89
2023/09/05 10:13:46;;;;;;;17.58;9.77;;;23.80;90.00;;;;;;4985770;28;20105;-89
2023/09/05 10:16:12;;;;;;;14.15;8.88;;;23.90;89.00;;;;;;4975392;28;20085;-91
2023/09/05 10:18:41;;;;;;;11.85;7.95;;;24.10;88.30;;;;;;4985382;28;20033;-89
2023/09/05 10:21:08;;;;;;;12.80;8.98;;;24.30;86.50;;;;;;4973958;28;20054;-90
2023/09/05 10:23:36;;;;;;;16.70;9.90;;;24.50;85.40;;;;;;4974250;28;20023;-89
2023/09/05 10:26:04;;;;;;;15.32;10.00;;;24.60;83.80;;;;;;4977938;28;20060;-89
2023/09/05 10:28:30;;;;;;;14.10;9.95;;;24.80;82.60;;;;;;4977209;28;20081;-88
2023/09/05 10:31:12;;;;;;;15.65;9.23;;;24.90;81.40;;;;;;4975953;28;20035;-90
2023/09/05 10:33:39;;;;;;;12.73;8.73;;;25.00;80.70;;;;;;4975516;28;20078;-90
2023/09/05 10:36:06;;;;;;;14.70;8.63;;;25.20;79.90;;;;;;4975608;28;20042;-91
2023/09/05 10:38:36;;;;;;;12.80;8.38;;;25.30;78.00;;;;;;4975283;28;20031;-90
2023/09/05 10:41:02;;;;;;;13.80;10.05;;;25.50;77.40;;;;;;4973917;28;20034;-89
2023/09/05 10:43:28;;;;;;;21.55;9.93;;;25.60;76.10;;;;;;4975796;28;20037;-89
2023/09/05 10:46:03;;;;;;;14.30;9.15;;;25.60;74.60;;;;;;4973621;28;20074;-90
2023/09/05 10:48:31;;;;;;;11.82;7.40;;;25.70;74.30;;;;;;4972516;28;20042;-90
2023/09/05 10:51:07;;;;;;;13.00;8.38;;;25.90;74.10;;;;;;4972870;28;20544;-89
2023/09/05 10:53:39;;;;;;;13.32;8.82;;;26.20;73.80;;;;;;4973380;28;20026;-89
2023/09/05 10:56:05;;;;;;;9.85;7.07;;;26.60;72.60;;;;;;4974667;28;20035;-89
2023/09/05 10:58:53;;;;;;;9.57;6.50;;;26.80;70.60;;;;;;4968066;28;20034;-91
2023/09/05 11:01:34;;;;;;;13.70;7.90;;;26.80;69.50;;;;;;4969414;28;20034;-89
2023/09/05 11:04:07;;;;;;;13.73;7.35;;;27.00;68.20;;;;;;4973898;28;20022;-92
2023/09/05 11:06:33;;;;;;;12.85;8.23;;;27.20;67.90;;;;;;4977872;28;20483;-91
2023/09/05 11:09:08;;;;;;;12.77;8.70;;;27.40;66.70;;;;;;4973521;28;20022;-89
2023/09/05 11:11:40;;;;;;;14.35;8.88;;;27.40;65.70;;;;;;4974067;28;20047;-91
2023/09/05 11:14:09;;;;;;;10.35;6.63;;;27.50;65.30;;;;;;4973980;28;20031;-90
2023/09/05 11:16:47;;;;;;;9.50;5.72;;;27.60;64.90;;;;;;4975466;28;20026;-91
2023/09/05 11:19:35;;;;;;;8.20;5.60;;;27.80;64.80;;;;;;4975519;28;20056;-91
2023/09/05 11:22:21;;;;;;;11.23;5.82;;;28.10;63.10;;;;;;4973885;28;20077;-92
2023/09/05 11:24:49;;;;;;;9.02;6.03;;;28.30;61.70;;;;;;4974143;28;20023;-91
2023/09/05 11:27:26;;;;;;;9.93;5.28;;;28.40;61.10;;;;;;4973369;28;20031;-90
2023/09/05 11:29:55;;;;;;;9.10;5.20;;;28.50;60.50;;;;;;4973465;28;20037;-91
2023/09/05 11:32:29;;;;;;;10.00;7.33;;;28.60;60.00;;;;;;4973860;28;20145;-90
2023/09/05 11:34:55;;;;;;;11.63;6.90;;;28.80;59.40;;;;;;4974165;28;20035;-92
2023/09/05 11:37:21;;;;;;;14.48;8.77;;;28.80;59.10;;;;;;4973951;28;20054;-88
2023/09/05 11:39:51;;;;;;;13.50;7.68;;;28.80;59.10;;;;;;4974865;28;20018;-89
2023/09/05 11:42:30;;;;;;;11.82;9.07;;;28.70;59.20;;;;;;4979958;28;20038;-90
2023/09/05 11:44:57;;;;;;;14.00;9.27;;;28.60;59.40;;;;;;4987422;28;20030;-90
2023/09/05 11:47:25;;;;;;;11.88;7.97;;;28.60;59.40;;;;;;4972885;28;20027;-90
2023/09/05 11:49:53;;;;;;;16.67;9.52;;;28.70;59.60;;;;;;4973907;28;20039;-90
2023/09/05 11:52:20;;;;;;;14.05;8.55;;;28.90;59.90;;;;;;4972448;28;20034;-91
2023/09/05 11:54:50;;;;;;;13.73;8.82;;;29.10;59.70;;;;;;4975058;28;20030;-89
2023/09/05 11:57:20;;;;;;;17.33;8.25;;;29.30;59.50;;;;;;4970977;28;20110;-91
2023/09/05 11:59:47;;;;;;;11.25;7.35;;;29.50;59.10;;;;;;4988071;28;20130;-89
2023/09/05 12:02:18;;;;;;;12.60;7.30;;;29.60;58.70;;;;;;4986009;28;20027;-91
2023/09/05 12:04:49;;;;;;;8.02;6.18;;;29.60;58.70;;;;;;4973752;28;20058;-90
2023/09/05 12:07:15;;;;;;;6.93;5.00;;;29.70;58.50;;;;;;4970911;28;20023;-91
2023/09/05 12:09:42;;;;;;;6.35;4.47;;;29.80;58.40;;;;;;4983668;28;20430;-90
2023/09/05 12:12:12;;;;;;;8.77;3.63;;;29.90;57.40;;;;;;4970033;28;20058;-89
2023/09/05 12:14:53;;;;;;;8.20;3.42;;;29.90;56.80;;;;;;4972967;28;20042;-89
2023/09/05 12:17:25;;;;;;;7.57;3.65;;;30.00;55.60;;;;;;4969132;28;20037;-90
2023/09/05 12:19:55;;;;;;;7.00;3.33;;;30.10;54.90;;;;;;4973012;28;20089;-90
2023/09/05 12:22:30;;;;;;;5.45;3.13;;;30.20;54.70;;;;;;4973040;28;20030;-88
2023/09/05 12:25:14;;;;;;;8.98;3.40;;;30.10;54.50;;;;;;4973017;28;20027;-89
2023/09/05 12:27:42;;;;;;;4.22;3.03;;;30.20;54.20;;;;;;4972936;28;20069;-89
2023/09/05 12:30:25;;;;;;;6.82;3.30;;;30.10;54.20;;;;;;4973337;28;20035;-90
2023/09/05 12:33:00;;;;;;;9.93;3.33;;;30.10;54.10;;;;;;4973047;28;20116;-89
2023/09/05 12:35:28;;;;;;;6.40;3.20;;;30.20;54.10;;;;;;4972792;28;20023;-91
2023/09/05 12:37:55;;;;;;;4.78;2.53;;;30.30;54.00;;;;;;4973063;28;20054;-90
2023/09/05 12:40:22;;;;;;;10.02;2.90;;;30.40;54.20;;;;;;4973004;28;20031;-90